createdAt,value
2018-09-30T00:00:22.116Z,3.90
2018-09-30T00:02:50.729Z,4.00
2018-09-30T00:05:19.350Z,3.10
2018-09-30T00:07:47.944Z,3.00
2018-09-30T00:10:16.492Z,3.27
2018-09-30T00:12:45.077Z,2.80
2018-09-30T00:15:13.634Z,3.00
2018-09-30T00:17:42.221Z,2.90
2018-09-30T00:20:10.786Z,2.80
2018-09-30T00:22:39.381Z,3.10
2018-09-30T00:25:13.339Z,3.43
2018-09-30T00:27:41.908Z,3.17
2018-09-30T00:30:10.467Z,3.30
2018-09-30T00:32:39.035Z,3.33
2018-09-30T00:35:07.598Z,3.27
2018-09-30T00:37:36.193Z,3.50
2018-09-30T00:40:04.819Z,3.57
2018-09-30T00:49:35.058Z,2.70
2018-09-30T00:52:03.644Z,2.97
2018-09-30T00:54:32.215Z,2.90
2018-09-30T00:57:00.837Z,2.67
2018-09-30T00:59:29.417Z,2.30
2018-09-30T01:01:58.013Z,2.40
2018-09-30T01:04:26.720Z,2.40
2018-09-30T01:06:55.312Z,2.40
2018-09-30T01:09:23.890Z,2.00
2018-09-30T01:11:52.494Z,2.77
2018-09-30T01:14:21.089Z,2.67
2018-09-30T01:16:49.991Z,2.13
2018-09-30T01:19:18.628Z,2.87
2018-09-30T01:21:47.512Z,2.40
2018-09-30T01:24:16.090Z,2.10
2018-09-30T01:26:44.698Z,2.53
2018-09-30T01:29:13.241Z,2.20
2018-09-30T01:31:41.813Z,2.53
2018-09-30T01:34:10.412Z,2.40
2018-09-30T01:36:39.905Z,2.30
2018-09-30T01:39:08.645Z,2.40
2018-09-30T01:41:37.500Z,2.47
2018-09-30T01:44:06.142Z,2.00
2018-09-30T01:46:36.355Z,2.33
2018-09-30T01:49:04.991Z,2.33
2018-09-30T01:51:33.930Z,2.40
2018-09-30T01:54:02.587Z,2.43
2018-09-30T01:56:31.323Z,2.37
2018-09-30T01:59:00.022Z,2.30
2018-09-30T02:01:29.160Z,2.20
2018-09-30T02:03:57.788Z,2.50
2018-09-30T02:06:26.500Z,2.30
2018-09-30T02:08:59.912Z,2.30
2018-09-30T02:11:28.469Z,2.50
2018-09-30T02:13:57.065Z,2.60
2018-09-30T02:16:25.604Z,2.20
2018-09-30T02:18:54.226Z,2.20
2018-09-30T02:21:22.801Z,2.17
2018-09-30T02:23:51.392Z,2.40
2018-09-30T02:26:20.198Z,2.00
2018-09-30T02:28:48.822Z,2.10
2018-09-30T02:31:17.409Z,2.70
2018-09-30T02:33:47.222Z,2.40
2018-09-30T02:36:15.807Z,2.50
2018-09-30T02:38:44.402Z,2.20
2018-09-30T02:41:13.346Z,2.10
2018-09-30T02:43:42.374Z,2.17
2018-09-30T02:46:10.936Z,2.33
2018-09-30T02:48:39.526Z,2.10
2018-09-30T02:51:08.081Z,2.10
2018-09-30T02:53:36.670Z,2.30
2018-09-30T02:56:05.259Z,2.20
2018-09-30T02:58:33.839Z,2.20
2018-09-30T03:01:02.451Z,2.20
2018-09-30T03:03:31.086Z,2.23
2018-09-30T03:05:59.674Z,2.57
2018-09-30T03:09:37.422Z,2.30
2018-09-30T03:12:06.005Z,2.57
2018-09-30T03:14:34.636Z,2.57
2018-09-30T03:17:03.214Z,2.10
2018-09-30T03:19:31.818Z,2.43
2018-09-30T03:22:00.462Z,2.43
2018-09-30T03:24:31.997Z,2.40
2018-09-30T03:27:01.110Z,2.23
2018-09-30T03:29:29.756Z,2.50
2018-09-30T03:31:58.354Z,2.20
2018-09-30T03:34:26.949Z,2.50
2018-09-30T03:36:55.553Z,2.17
2018-09-30T03:39:24.149Z,2.27
2018-09-30T03:41:52.733Z,2.30
2018-09-30T03:44:21.334Z,2.00
2018-09-30T03:46:49.927Z,2.30
2018-09-30T03:49:18.545Z,2.60
2018-09-30T03:51:50.885Z,2.07
2018-09-30T03:54:20.798Z,2.30
2018-09-30T03:56:49.432Z,2.00
2018-09-30T03:59:18.075Z,2.30
2018-09-30T04:01:54.238Z,2.53
2018-09-30T04:04:22.913Z,2.50
2018-09-30T04:06:51.474Z,2.90
2018-09-30T04:09:20.077Z,2.77
2018-09-30T04:11:48.646Z,2.60
2018-09-30T04:14:17.253Z,2.60
2018-09-30T04:16:45.851Z,2.90
2018-09-30T04:19:14.426Z,2.60
2018-09-30T04:21:43.060Z,2.70
2018-09-30T04:24:12.014Z,2.60
2018-09-30T04:26:41.720Z,3.10
2018-09-30T04:29:10.857Z,2.33
2018-09-30T04:31:39.474Z,2.47
2018-09-30T04:34:08.298Z,2.43
2018-09-30T04:36:37.068Z,2.20
2018-09-30T04:39:08.536Z,2.20
2018-09-30T04:41:37.157Z,2.47
2018-09-30T04:44:10.621Z,2.47
2018-09-30T04:46:39.613Z,2.37
2018-09-30T04:49:08.185Z,2.60
2018-09-30T04:51:36.825Z,2.80
2018-09-30T04:54:05.414Z,2.60
2018-09-30T04:56:34.051Z,2.80
2018-09-30T04:59:03.050Z,2.67
2018-09-30T05:01:31.664Z,2.83
2018-09-30T05:04:01.064Z,2.47
2018-09-30T05:06:30.503Z,2.53
2018-09-30T05:08:59.055Z,3.23
2018-09-30T05:11:27.657Z,2.47
2018-09-30T05:13:56.244Z,2.63
2018-09-30T05:16:24.971Z,2.73
2018-09-30T05:18:53.555Z,2.97
2018-09-30T05:21:22.197Z,2.77
2018-09-30T05:23:50.788Z,2.60
2018-09-30T05:26:19.436Z,2.80
2018-09-30T05:28:49.211Z,2.90
2018-09-30T05:31:18.341Z,2.93
2018-09-30T05:33:50.009Z,2.53
2018-09-30T05:36:18.681Z,3.23
2018-09-30T05:38:47.305Z,2.97
2018-09-30T05:41:15.946Z,2.70
2018-09-30T05:43:44.562Z,2.80
2018-09-30T05:46:13.758Z,3.17
2018-09-30T05:48:49.101Z,3.47
2018-09-30T05:51:18.602Z,3.53
2018-09-30T05:53:47.160Z,3.83
2018-09-30T05:56:15.788Z,3.40
2018-09-30T05:58:44.347Z,3.53
2018-09-30T06:01:13.013Z,3.77
2018-09-30T06:03:41.585Z,3.30
2018-09-30T06:06:10.238Z,3.40
2018-09-30T06:08:38.808Z,2.93
2018-09-30T06:11:07.473Z,3.00
2018-09-30T06:13:36.473Z,2.80
2018-09-30T06:16:05.404Z,2.90
2018-09-30T06:18:33.893Z,2.70
2018-09-30T06:21:02.526Z,3.13
2018-09-30T06:23:33.196Z,3.07
2018-09-30T06:26:04.685Z,3.30
2018-09-30T06:28:33.289Z,2.97
2018-09-30T06:31:02.554Z,3.07
2018-09-30T06:33:31.779Z,2.87
2018-09-30T06:36:01.029Z,2.17
2018-09-30T06:38:32.914Z,2.03
2018-09-30T06:41:02.137Z,2.60
2018-09-30T06:43:31.390Z,2.50
2018-09-30T06:46:00.277Z,2.50
2018-09-30T06:48:29.243Z,2.00
2018-09-30T06:50:58.192Z,2.00
2018-09-30T06:53:26.793Z,1.85
2018-09-30T06:55:55.659Z,1.90
2018-09-30T06:58:24.621Z,1.77
2018-09-30T07:00:53.249Z,1.80
2018-09-30T07:03:21.880Z,1.92
2018-09-30T07:05:50.753Z,2.00
2018-09-30T07:08:19.642Z,1.60
2018-09-30T07:10:48.301Z,1.90
2018-09-30T07:13:18.577Z,1.98
2018-09-30T07:15:47.462Z,1.80
2018-09-30T07:18:18.663Z,1.80
2018-09-30T07:20:47.282Z,2.27
2018-09-30T07:23:16.319Z,1.72
2018-09-30T07:25:45.761Z,1.80
2018-09-30T07:28:14.782Z,1.65
2018-09-30T07:30:43.605Z,1.70
2018-09-30T07:33:12.284Z,1.67
2018-09-30T07:35:41.303Z,1.65
2018-09-30T07:38:10.435Z,2.00
2018-09-30T07:40:39.426Z,1.70
2018-09-30T07:43:08.062Z,1.90
2018-09-30T07:45:36.914Z,1.90
2018-09-30T07:48:06.244Z,2.10
2018-09-30T07:50:34.881Z,1.90
2018-09-30T07:53:03.749Z,2.10
2018-09-30T07:55:32.616Z,1.85
2018-09-30T07:58:04.065Z,1.90
2018-09-30T08:00:33.002Z,1.95
2018-09-30T08:03:01.897Z,1.62
2018-09-30T08:05:30.507Z,2.08
2018-09-30T08:07:59.406Z,1.70
2018-09-30T08:10:27.974Z,1.90
2018-09-30T08:12:57.059Z,1.90
2018-09-30T08:15:25.674Z,1.90
2018-09-30T08:17:55.185Z,2.00
2018-09-30T08:20:24.091Z,1.72
2018-09-30T08:22:52.957Z,1.85
2018-09-30T08:25:22.432Z,2.08
2018-09-30T08:27:51.615Z,2.00
2018-09-30T08:30:20.473Z,1.95
2018-09-30T08:32:49.444Z,2.00
2018-09-30T08:35:18.618Z,1.98
2018-09-30T08:37:52.732Z,2.05
2018-09-30T08:40:27.436Z,2.25
2018-09-30T08:42:56.046Z,1.75
2018-09-30T08:45:25.071Z,2.22
2018-09-30T08:47:56.095Z,2.00
2018-09-30T08:50:25.112Z,2.12
2018-09-30T08:52:54.141Z,2.40
2018-09-30T08:55:22.789Z,2.12
2018-09-30T08:57:51.356Z,2.20
2018-09-30T09:00:20.188Z,2.40
2018-09-30T09:02:49.499Z,2.40
2018-09-30T09:05:18.180Z,2.30
2018-09-30T09:07:47.012Z,2.40
2018-09-30T09:10:16.945Z,2.23
2018-09-30T09:12:45.521Z,2.33
2018-09-30T09:15:14.200Z,2.00
2018-09-30T09:17:43.182Z,2.43
2018-09-30T09:20:11.855Z,2.20
2018-09-30T09:22:41.719Z,2.00
2018-09-30T09:25:10.390Z,2.27
2018-09-30T09:27:38.977Z,2.30
2018-09-30T09:30:07.624Z,2.20
2018-09-30T09:32:38.621Z,2.33
2018-09-30T09:35:09.467Z,1.90
2018-09-30T09:37:39.001Z,2.30
2018-09-30T09:40:10.135Z,2.20
2018-09-30T09:42:39.246Z,2.20
2018-09-30T09:45:09.901Z,2.03
2018-09-30T09:47:38.943Z,2.27
2018-09-30T09:50:09.192Z,2.00
2018-09-30T09:52:38.366Z,2.20
2018-09-30T09:55:06.949Z,2.10
2018-09-30T09:57:35.982Z,2.20
2018-09-30T10:00:05.163Z,2.20
2018-09-30T10:02:33.988Z,2.30
2018-09-30T10:05:02.673Z,2.20
2018-09-30T10:07:31.712Z,2.10
2018-09-30T10:10:01.460Z,2.10
2018-09-30T10:12:30.213Z,2.30
2018-09-30T10:14:59.198Z,2.07
2018-09-30T10:17:29.051Z,2.17
2018-09-30T10:19:58.125Z,2.07
2018-09-30T10:22:27.082Z,1.97
2018-09-30T10:24:55.721Z,2.30
2018-09-30T10:27:24.325Z,2.30
2018-09-30T10:29:53.010Z,2.10
2018-09-30T10:32:22.111Z,2.20
2018-09-30T10:34:51.177Z,2.10
2018-09-30T10:37:20.413Z,2.20
2018-09-30T10:39:49.491Z,2.43
2018-09-30T10:42:18.330Z,2.20
2018-09-30T10:44:48.081Z,2.05
2018-09-30T10:47:17.075Z,2.20
2018-09-30T10:49:50.553Z,2.72
2018-09-30T10:52:20.147Z,2.50
2018-09-30T10:54:50.412Z,2.22
2018-09-30T10:57:19.293Z,2.25
2018-09-30T10:59:48.242Z,2.47
2018-09-30T11:02:16.830Z,2.40
2018-09-30T11:04:47.003Z,2.22
2018-09-30T11:07:16.054Z,2.60
2018-09-30T11:09:44.771Z,2.35
2018-09-30T11:12:13.526Z,2.22
2018-09-30T11:14:42.113Z,2.67
2018-09-30T11:17:10.739Z,2.45
2018-09-30T11:19:39.549Z,2.27
2018-09-30T11:22:09.518Z,2.15
2018-09-30T11:24:38.115Z,2.60
2018-09-30T11:27:07.966Z,2.70
2018-09-30T11:29:36.686Z,2.70
2018-09-30T11:32:05.356Z,2.40
2018-09-30T11:34:33.914Z,2.37
2018-09-30T11:37:02.545Z,2.90
2018-09-30T11:39:31.176Z,2.50
2018-09-30T11:42:00.823Z,2.55
2018-09-30T11:44:29.421Z,2.52
2018-09-30T11:46:59.959Z,2.50
2018-09-30T11:49:28.929Z,2.40
2018-09-30T11:51:58.284Z,2.65
2018-09-30T11:54:28.172Z,2.80
2018-09-30T11:56:57.097Z,2.77
2018-09-30T11:59:25.730Z,2.72
2018-09-30T12:01:54.433Z,2.35
2018-09-30T12:04:23.106Z,2.70
2018-09-30T12:06:52.169Z,2.60
2018-09-30T12:09:20.811Z,3.13
2018-09-30T12:11:49.435Z,2.47
2018-09-30T12:14:18.705Z,2.90
2018-09-30T12:16:47.345Z,2.70
2018-09-30T12:19:15.949Z,2.87
2018-09-30T12:21:44.581Z,3.03
2018-09-30T12:24:13.176Z,3.40
2018-09-30T12:26:41.830Z,3.03
2018-09-30T12:29:10.465Z,3.20
2018-09-30T12:31:39.201Z,2.80
2018-09-30T12:34:07.831Z,3.00
2018-09-30T12:36:36.790Z,3.37
2018-09-30T12:39:07.775Z,3.10
2018-09-30T12:41:36.450Z,3.10
2018-09-30T12:44:05.078Z,3.50
2018-09-30T12:46:34.076Z,3.27
2018-09-30T12:49:03.133Z,3.33
2018-09-30T12:51:31.780Z,3.07
2018-09-30T12:54:00.380Z,3.63
2018-09-30T12:56:29.473Z,3.30
2018-09-30T12:58:58.110Z,3.30
2018-09-30T13:01:26.730Z,3.20
2018-09-30T13:03:55.746Z,3.00
2018-09-30T13:06:24.737Z,3.30
2018-09-30T13:08:53.373Z,3.60
2018-09-30T13:11:21.994Z,3.43
2018-09-30T13:13:51.076Z,3.37
2018-09-30T13:16:19.685Z,3.40
2018-09-30T13:18:48.285Z,3.50
2018-09-30T13:21:16.884Z,3.23
2018-09-30T13:23:45.492Z,3.53
2018-09-30T13:26:14.409Z,3.50
2018-09-30T13:28:42.284Z,3.60
2018-09-30T13:31:10.864Z,3.53
2018-09-30T13:33:40.152Z,3.70
2018-09-30T13:36:08.718Z,3.77
2018-09-30T13:38:38.208Z,3.47
2018-09-30T13:41:07.320Z,3.77
2018-09-30T13:43:35.820Z,3.90
2018-09-30T13:46:04.488Z,3.60
2018-09-30T13:48:34.139Z,4.73
2018-09-30T13:51:06.854Z,3.90
2018-09-30T13:53:36.190Z,3.70
2018-09-30T13:56:05.843Z,4.20
2018-09-30T13:58:34.475Z,4.43
2018-09-30T14:01:04.108Z,4.90
2018-09-30T14:03:33.065Z,4.57
2018-09-30T14:06:06.631Z,5.03
2018-09-30T14:08:35.802Z,4.67
2018-09-30T14:11:04.789Z,4.70
2018-09-30T14:13:33.388Z,4.47
2018-09-30T14:16:02.780Z,4.73
2018-09-30T14:18:35.146Z,4.30
2018-09-30T14:21:04.044Z,4.30
2018-09-30T14:23:33.167Z,4.60
2018-09-30T14:26:02.137Z,4.77
2018-09-30T14:28:31.418Z,4.70
2018-09-30T14:31:01.576Z,4.83
2018-09-30T14:33:30.204Z,4.20
2018-09-30T14:35:59.471Z,4.90
2018-09-30T14:38:29.417Z,4.20
2018-09-30T14:41:01.173Z,4.40
2018-09-30T14:43:30.285Z,4.20
2018-09-30T14:45:59.449Z,5.77
2018-09-30T14:48:28.925Z,4.10
2018-09-30T14:50:57.722Z,4.30
2018-09-30T14:53:26.620Z,4.20
2018-09-30T14:55:55.904Z,4.40
2018-09-30T14:58:25.421Z,4.40
2018-09-30T15:00:54.519Z,4.30
2018-09-30T15:03:23.413Z,4.83
2018-09-30T15:05:52.031Z,4.67
2018-09-30T15:08:27.688Z,4.70
2018-09-30T15:10:56.544Z,4.93
2018-09-30T15:13:25.416Z,4.70
2018-09-30T15:15:54.090Z,4.90
2018-09-30T15:18:22.745Z,4.10
2018-09-30T15:20:55.640Z,4.50
2018-09-30T15:23:24.698Z,4.27
2018-09-30T15:25:58.668Z,4.67
2018-09-30T15:28:34.786Z,4.77
2018-09-30T15:31:03.641Z,4.63
2018-09-30T15:33:32.762Z,3.77
2018-09-30T15:36:01.951Z,3.80
2018-09-30T15:38:31.232Z,3.83
2018-09-30T15:40:59.845Z,4.10
2018-09-30T15:46:04.757Z,3.50
2018-09-30T15:48:33.794Z,3.80
2018-09-30T15:51:02.432Z,4.33
2018-09-30T15:53:31.005Z,3.80
2018-09-30T15:55:59.605Z,4.30
2018-09-30T15:58:28.489Z,3.90
2018-09-30T16:00:57.389Z,3.90
2018-09-30T16:03:25.976Z,4.43
2018-09-30T16:05:54.996Z,4.37
2018-09-30T16:08:23.585Z,5.17
2018-09-30T16:10:52.219Z,15.57
2018-09-30T16:13:20.800Z,4.63
2018-09-30T16:15:49.627Z,4.10
2018-09-30T16:18:18.216Z,4.33
2018-09-30T16:20:47.126Z,3.77
2018-09-30T16:23:15.729Z,4.13
2018-09-30T16:25:44.344Z,4.27
2018-09-30T16:28:12.975Z,4.50
2018-09-30T16:30:41.622Z,4.23
2018-09-30T16:33:10.185Z,5.00
2018-09-30T16:35:39.280Z,4.80
2018-09-30T16:38:08.121Z,4.40
2018-09-30T16:40:36.727Z,4.47
2018-09-30T16:43:05.628Z,5.10
2018-09-30T16:45:34.236Z,4.63
2018-09-30T16:48:02.813Z,6.17
2018-09-30T16:50:31.456Z,5.97
2018-09-30T16:53:00.064Z,6.10
2018-09-30T16:55:28.698Z,5.30
2018-09-30T16:57:57.255Z,5.93
2018-09-30T17:00:26.559Z,6.47
2018-09-30T17:02:55.461Z,6.50
2018-09-30T17:05:24.098Z,6.70
2018-09-30T17:07:53.433Z,6.90
2018-09-30T17:10:23.037Z,6.80
2018-09-30T17:12:51.627Z,7.30
2018-09-30T17:15:20.241Z,7.20
2018-09-30T17:17:53.704Z,6.90
2018-09-30T17:20:23.685Z,6.73
2018-09-30T17:22:52.435Z,7.83
2018-09-30T17:25:21.038Z,9.50
2018-09-30T17:27:58.376Z,11.80
2018-09-30T17:30:26.953Z,14.10
2018-09-30T17:32:55.512Z,15.90
2018-09-30T17:35:27.711Z,14.57
2018-09-30T17:37:56.351Z,14.10
2018-09-30T17:40:24.848Z,14.13
2018-09-30T17:42:53.494Z,12.40
2018-09-30T17:45:25.835Z,10.37
2018-09-30T17:47:55.768Z,9.87
2018-09-30T17:50:24.309Z,10.20
2018-09-30T17:52:52.895Z,9.90
2018-09-30T17:55:21.464Z,9.50
2018-09-30T17:57:50.072Z,10.00
2018-09-30T18:00:18.620Z,9.90
2018-09-30T18:02:47.197Z,9.97
2018-09-30T18:06:40.158Z,9.83
2018-09-30T18:09:10.233Z,11.80
2018-09-30T18:11:39.827Z,9.20
2018-09-30T18:14:08.697Z,9.40
2018-09-30T18:16:39.808Z,7.70
2018-09-30T18:19:08.408Z,7.57
2018-09-30T18:21:37.028Z,7.30
2018-09-30T18:24:06.121Z,7.07
2018-09-30T18:26:34.748Z,7.40
2018-09-30T18:29:03.342Z,6.73
2018-09-30T18:31:31.971Z,6.60
2018-09-30T18:34:00.544Z,8.17
2018-09-30T18:36:29.120Z,9.00
2018-09-30T18:38:57.706Z,9.40
2018-09-30T18:41:26.284Z,9.40
2018-09-30T18:43:54.844Z,8.77
2018-09-30T18:46:23.518Z,9.00
2018-09-30T18:48:52.048Z,8.73
2018-09-30T18:52:45.055Z,9.50
2018-09-30T18:55:13.608Z,9.07
2018-09-30T18:57:42.339Z,9.90
2018-09-30T19:00:10.896Z,10.07
2018-09-30T19:02:39.812Z,10.17
2018-09-30T19:05:08.401Z,10.10
2018-09-30T19:07:36.944Z,9.73
2018-09-30T19:10:05.587Z,10.77
2018-09-30T19:12:34.160Z,11.33
2018-09-30T19:15:02.747Z,10.63
2018-09-30T19:17:31.341Z,9.43
2018-09-30T19:19:59.912Z,10.10
2018-09-30T19:23:52.892Z,9.43
2018-09-30T19:26:21.608Z,8.70
2018-09-30T19:28:50.218Z,8.77
2018-09-30T19:31:18.785Z,9.00
2018-09-30T19:33:47.716Z,9.17
2018-09-30T19:36:16.341Z,9.20
2018-09-30T19:38:44.896Z,9.10
2018-09-30T19:41:13.460Z,9.00
2018-09-30T19:43:42.041Z,8.70
2018-09-30T19:46:10.917Z,7.70
2018-09-30T19:48:39.542Z,8.27
2018-09-30T19:51:08.803Z,8.07
2018-09-30T19:53:43.226Z,7.63
2018-09-30T19:56:11.808Z,8.10
2018-09-30T19:58:40.475Z,8.23
2018-09-30T20:01:09.384Z,7.90
2018-09-30T20:03:37.895Z,7.57
2018-09-30T20:06:06.428Z,7.83
2018-09-30T20:08:35.262Z,7.53
2018-09-30T20:11:03.853Z,8.20
2018-09-30T20:13:38.664Z,7.60
2018-09-30T20:16:07.678Z,8.00
2018-09-30T20:18:36.277Z,8.30
2018-09-30T20:21:04.860Z,7.40
2018-09-30T20:23:33.458Z,7.87
2018-09-30T20:26:02.001Z,7.57
2018-09-30T20:28:30.673Z,7.70
2018-09-30T20:31:00.034Z,7.80
2018-09-30T20:33:28.607Z,7.80
2018-09-30T20:35:57.177Z,7.70
2018-09-30T20:38:25.834Z,7.47
2018-09-30T20:40:54.396Z,7.97
2018-09-30T20:43:22.992Z,7.67
2018-09-30T20:45:51.998Z,8.47
2018-09-30T20:48:20.581Z,8.10
2018-09-30T20:50:49.153Z,8.90
2018-09-30T20:53:25.353Z,8.87
2018-09-30T20:55:56.748Z,9.17
2018-09-30T20:58:25.432Z,8.63
2018-09-30T21:00:54.024Z,8.47
2018-09-30T21:03:22.624Z,8.37
2018-09-30T21:06:43.057Z,9.20
2018-09-30T21:09:13.694Z,9.00
2018-09-30T21:11:42.377Z,9.43
2018-09-30T21:14:13.289Z,9.17
2018-09-30T21:16:41.892Z,9.27
2018-09-30T21:19:10.531Z,9.30
2018-09-30T21:21:39.191Z,8.83
2018-09-30T21:24:07.809Z,9.10
2018-09-30T21:26:45.644Z,9.00
2018-09-30T21:29:15.845Z,9.03
2018-09-30T21:31:44.417Z,9.03
2018-09-30T21:34:13.035Z,9.80
2018-09-30T21:36:41.552Z,9.17
2018-09-30T21:39:11.021Z,8.67
2018-09-30T21:41:39.572Z,8.97
2018-09-30T21:44:08.380Z,8.40
2018-09-30T21:46:37.466Z,8.50
2018-09-30T21:49:06.119Z,8.77
2018-09-30T21:51:34.677Z,9.00
2018-09-30T21:54:03.285Z,8.67
2018-09-30T21:56:31.880Z,8.50
2018-09-30T21:59:00.436Z,8.57
2018-09-30T22:01:29.204Z,8.70
2018-09-30T22:03:57.693Z,9.10
2018-09-30T22:06:26.320Z,8.23
2018-09-30T22:08:54.882Z,8.60
2018-09-30T22:11:23.500Z,8.87
2018-09-30T22:13:52.032Z,8.67
2018-09-30T22:16:20.713Z,8.47
2018-09-30T22:18:49.268Z,8.60
2018-09-30T22:21:17.853Z,7.80
2018-09-30T22:23:51.620Z,8.63
2018-09-30T22:26:20.314Z,9.00
2018-09-30T22:28:48.877Z,8.70
2018-09-30T22:31:17.478Z,8.57
2018-09-30T22:33:46.017Z,8.50
2018-09-30T22:36:14.617Z,8.63
2018-09-30T22:38:43.189Z,8.50
2018-09-30T22:41:11.812Z,8.77
2018-09-30T22:43:40.373Z,8.80
2018-09-30T22:46:09.021Z,8.60
2018-09-30T22:49:24.781Z,8.70
2018-09-30T22:51:53.352Z,8.23
2018-09-30T22:54:21.921Z,8.33
2018-09-30T22:56:51.091Z,8.77
2018-09-30T23:02:25.583Z,8.90
2018-09-30T23:10:48.061Z,8.90
2018-09-30T23:16:17.253Z,9.03
2018-09-30T23:18:45.885Z,8.73
2018-09-30T23:21:14.538Z,8.93
2018-09-30T23:23:43.357Z,8.47
2018-09-30T23:26:12.375Z,8.67
2018-09-30T23:28:40.933Z,8.40
2018-09-30T23:31:09.508Z,8.90
2018-09-30T23:33:51.749Z,8.40
2018-09-30T23:36:22.554Z,8.27
2018-09-30T23:38:51.112Z,8.53
2018-09-30T23:41:19.678Z,7.87
2018-09-30T23:43:48.224Z,8.13
2018-09-30T23:46:22.237Z,8.57
2018-09-30T23:48:50.787Z,9.33
2018-09-30T23:51:19.380Z,9.20
2018-09-30T23:53:48.044Z,9.33
2018-09-30T23:56:16.653Z,8.80
2018-09-30T23:58:45.206Z,9.33
